sensor_id;sensor_type;location;lat;lon;timestamp;P1;durP1;ratioP1;P2;durP2;ratioP2
1847;SDS011;924;52.448;13.356;2022-09-09T00:04:18;6.27;;;5.77;;
1847;SDS011;924;52.448;13.356;2022-09-09T00:10:08;7.30;;;6.70;;
1847;SDS011;924;52.448;13.356;2022-09-09T00:15:13;6.20;;;5.70;;
1847;SDS011;924;52.448;13.356;2022-09-09T00:17:47;8.10;;;7.30;;
1847;SDS011;924;52.448;13.356;2022-09-09T00:20:25;6.70;;;6.10;;
1847;SDS011;924;52.448;13.356;2022-09-09T00:23:14;6.40;;;5.80;;
1847;SDS011;924;52.448;13.356;2022-09-09T00:28:10;6.63;;;6.03;;
1847;SDS011;924;52.448;13.356;2022-09-09T00:30:39;7.07;;;6.37;;
1847;SDS011;924;52.448;13.356;2022-09-09T00:33:09;7.47;;;6.87;;
1847;SDS011;924;52.448;13.356;2022-09-09T00:35:40;7.07;;;6.47;;
1847;SDS011;924;52.448;13.356;2022-09-09T00:38:10;6.70;;;6.13;;
1847;SDS011;924;52.448;13.356;2022-09-09T00:40:40;7.63;;;6.93;;
1847;SDS011;924;52.448;13.356;2022-09-09T00:48:18;6.47;;;5.97;;
1847;SDS011;924;52.448;13.356;2022-09-09T00:50:50;7.00;;;6.40;;
1847;SDS011;924;52.448;13.356;2022-09-09T00:55:51;7.03;;;6.33;;
1847;SDS011;924;52.448;13.356;2022-09-09T00:58:19;7.10;;;6.60;;
1847;SDS011;924;52.448;13.356;2022-09-09T01:00:52;7.43;;;6.67;;
1847;SDS011;924;52.448;13.356;2022-09-09T01:03:20;6.90;;;6.30;;
1847;SDS011;924;52.448;13.356;2022-09-09T01:10:53;8.03;;;6.67;;
1847;SDS011;924;52.448;13.356;2022-09-09T01:13:24;7.50;;;6.80;;
1847;SDS011;924;52.448;13.356;2022-09-09T01:15:49;6.33;;;5.83;;
1847;SDS011;924;52.448;13.356;2022-09-09T01:18:17;6.53;;;6.00;;
1847;SDS011;924;52.448;13.356;2022-09-09T01:28:27;6.50;;;5.87;;
1847;SDS011;924;52.448;13.356;2022-09-09T01:30:53;6.43;;;5.93;;
1847;SDS011;924;52.448;13.356;2022-09-09T01:33:19;7.73;;;5.73;;
1847;SDS011;924;52.448;13.356;2022-09-09T01:38:10;6.30;;;5.70;;
1847;SDS011;924;52.448;13.356;2022-09-09T01:40:35;7.00;;;5.73;;
1847;SDS011;924;52.448;13.356;2022-09-09T01:43:01;6.27;;;5.77;;
1847;SDS011;924;52.448;13.356;2022-09-09T01:45:27;6.20;;;5.60;;
1847;SDS011;924;52.448;13.356;2022-09-09T01:47:53;6.20;;;5.50;;
1847;SDS011;924;52.448;13.356;2022-09-09T01:50:19;6.40;;;5.80;;
1847;SDS011;924;52.448;13.356;2022-09-09T01:52:45;6.83;;;6.20;;
1847;SDS011;924;52.448;13.356;2022-09-09T01:55:12;6.13;;;5.63;;
1847;SDS011;924;52.448;13.356;2022-09-09T02:00:18;6.33;;;5.83;;
1847;SDS011;924;52.448;13.356;2022-09-09T02:05:35;6.80;;;5.93;;
1847;SDS011;924;52.448;13.356;2022-09-09T02:08:11;7.17;;;6.57;;
1847;SDS011;924;52.448;13.356;2022-09-09T02:13:06;6.00;;;5.50;;
1847;SDS011;924;52.448;13.356;2022-09-09T02:15:47;5.33;;;4.93;;
1847;SDS011;924;52.448;13.356;2022-09-09T02:18:15;5.50;;;5.00;;
1847;SDS011;924;52.448;13.356;2022-09-09T02:20:43;5.57;;;5.07;;
1847;SDS011;924;52.448;13.356;2022-09-09T02:23:09;6.40;;;5.90;;
1847;SDS011;924;52.448;13.356;2022-09-09T02:25:35;6.43;;;5.83;;
1847;SDS011;924;52.448;13.356;2022-09-09T02:28:01;8.57;;;6.17;;
1847;SDS011;924;52.448;13.356;2022-09-09T02:30:28;6.00;;;5.40;;
1847;SDS011;924;52.448;13.356;2022-09-09T02:32:54;6.83;;;5.60;;
1847;SDS011;924;52.448;13.356;2022-09-09T02:35:24;5.80;;;5.30;;
1847;SDS011;924;52.448;13.356;2022-09-09T02:37:50;5.70;;;5.20;;
1847;SDS011;924;52.448;13.356;2022-09-09T02:40:16;6.10;;;5.60;;
1847;SDS011;924;52.448;13.356;2022-09-09T02:42:42;6.33;;;5.83;;
1847;SDS011;924;52.448;13.356;2022-09-09T02:45:09;6.43;;;5.83;;
1847;SDS011;924;52.448;13.356;2022-09-09T02:47:35;6.90;;;6.30;;
1847;SDS011;924;52.448;13.356;2022-09-09T02:54:59;5.77;;;5.13;;
1847;SDS011;924;52.448;13.356;2022-09-09T02:57:29;6.43;;;5.83;;
1847;SDS011;924;52.448;13.356;2022-09-09T02:59:57;6.20;;;5.60;;
1847;SDS011;924;52.448;13.356;2022-09-09T03:02:22;6.90;;;6.20;;
1847;SDS011;924;52.448;13.356;2022-09-09T03:04:47;5.60;;;5.10;;
1847;SDS011;924;52.448;13.356;2022-09-09T03:07:16;5.57;;;5.03;;
1847;SDS011;924;52.448;13.356;2022-09-09T03:09:42;6.73;;;5.93;;
1847;SDS011;924;52.448;13.356;2022-09-09T03:12:07;6.07;;;5.53;;
1847;SDS011;924;52.448;13.356;2022-09-09T03:14:32;6.00;;;5.40;;
1847;SDS011;924;52.448;13.356;2022-09-09T03:16:58;6.20;;;5.60;;
1847;SDS011;924;52.448;13.356;2022-09-09T03:19:26;7.03;;;6.43;;
1847;SDS011;924;52.448;13.356;2022-09-09T03:21:52;7.87;;;7.10;;
1847;SDS011;924;52.448;13.356;2022-09-09T03:24:17;6.43;;;5.87;;
1847;SDS011;924;52.448;13.356;2022-09-09T03:26:43;6.47;;;5.90;;
1847;SDS011;924;52.448;13.356;2022-09-09T03:29:10;6.63;;;6.00;;
1847;SDS011;924;52.448;13.356;2022-09-09T03:31:35;8.57;;;5.60;;
1847;SDS011;924;52.448;13.356;2022-09-09T03:34:01;10.13;;;6.70;;
1847;SDS011;924;52.448;13.356;2022-09-09T03:36:27;7.03;;;6.23;;
1847;SDS011;924;52.448;13.356;2022-09-09T03:38:53;7.23;;;5.33;;
1847;SDS011;924;52.448;13.356;2022-09-09T03:41:21;6.67;;;6.07;;
1847;SDS011;924;52.448;13.356;2022-09-09T03:43:48;6.30;;;5.80;;
1847;SDS011;924;52.448;13.356;2022-09-09T03:46:13;5.90;;;5.40;;
1847;SDS011;924;52.448;13.356;2022-09-09T03:48:39;8.60;;;5.77;;
1847;SDS011;924;52.448;13.356;2022-09-09T03:51:04;7.07;;;6.47;;
1847;SDS011;924;52.448;13.356;2022-09-09T03:53:29;6.43;;;5.83;;
1847;SDS011;924;52.448;13.356;2022-09-09T03:55:55;6.63;;;6.00;;
1847;SDS011;924;52.448;13.356;2022-09-09T03:58:21;6.50;;;5.90;;
1847;SDS011;924;52.448;13.356;2022-09-09T04:00:56;7.20;;;6.57;;
1847;SDS011;924;52.448;13.356;2022-09-09T04:03:22;7.30;;;6.57;;
1847;SDS011;924;52.448;13.356;2022-09-09T04:05:49;6.50;;;5.90;;
1847;SDS011;924;52.448;13.356;2022-09-09T04:08:14;7.07;;;6.47;;
1847;SDS011;924;52.448;13.356;2022-09-09T04:10:40;6.47;;;5.87;;
1847;SDS011;924;52.448;13.356;2022-09-09T04:13:05;6.83;;;6.13;;
1847;SDS011;924;52.448;13.356;2022-09-09T04:15:30;6.10;;;5.50;;
1847;SDS011;924;52.448;13.356;2022-09-09T04:17:56;6.20;;;5.70;;
1847;SDS011;924;52.448;13.356;2022-09-09T04:20:21;8.97;;;6.53;;
1847;SDS011;924;52.448;13.356;2022-09-09T04:22:47;5.60;;;5.20;;
1847;SDS011;924;52.448;13.356;2022-09-09T04:25:12;5.33;;;4.83;;
1847;SDS011;924;52.448;13.356;2022-09-09T04:27:37;8.73;;;6.60;;
1847;SDS011;924;52.448;13.356;2022-09-09T04:30:03;6.97;;;6.27;;
1847;SDS011;924;52.448;13.356;2022-09-09T04:32:28;6.17;;;5.63;;
1847;SDS011;924;52.448;13.356;2022-09-09T04:34:53;6.20;;;5.70;;
1847;SDS011;924;52.448;13.356;2022-09-09T04:37:19;7.00;;;6.03;;
1847;SDS011;924;52.448;13.356;2022-09-09T04:39:44;6.80;;;6.00;;
1847;SDS011;924;52.448;13.356;2022-09-09T04:42:10;5.90;;;5.30;;
1847;SDS011;924;52.448;13.356;2022-09-09T04:44:35;6.70;;;6.00;;
1847;SDS011;924;52.448;13.356;2022-09-09T04:47:01;5.63;;;5.13;;
1847;SDS011;924;52.448;13.356;2022-09-09T04:49:26;7.40;;;5.90;;
1847;SDS011;924;52.448;13.356;2022-09-09T04:51:51;5.87;;;5.37;;
1847;SDS011;924;52.448;13.356;2022-09-09T04:54:16;5.90;;;5.40;;
1847;SDS011;924;52.448;13.356;2022-09-09T04:56:42;6.00;;;5.50;;
1847;SDS011;924;52.448;13.356;2022-09-09T04:59:08;5.70;;;4.83;;
1847;SDS011;924;52.448;13.356;2022-09-09T05:01:34;5.83;;;5.30;;
1847;SDS011;924;52.448;13.356;2022-09-09T05:04:00;6.00;;;5.40;;
1847;SDS011;924;52.448;13.356;2022-09-09T05:06:26;5.70;;;5.20;;
1847;SDS011;924;52.448;13.356;2022-09-09T05:08:51;5.90;;;5.30;;
1847;SDS011;924;52.448;13.356;2022-09-09T05:11:23;6.47;;;5.87;;
1847;SDS011;924;52.448;13.356;2022-09-09T05:13:49;5.50;;;5.00;;
1847;SDS011;924;52.448;13.356;2022-09-09T05:16:15;5.70;;;5.17;;
1847;SDS011;924;52.448;13.356;2022-09-09T05:18:41;6.37;;;5.83;;
1847;SDS011;924;52.448;13.356;2022-09-09T05:21:10;7.50;;;5.40;;
1847;SDS011;924;52.448;13.356;2022-09-09T05:23:35;7.90;;;7.20;;
1847;SDS011;924;52.448;13.356;2022-09-09T05:26:02;5.80;;;5.30;;
1847;SDS011;924;52.448;13.356;2022-09-09T05:28:28;5.77;;;5.27;;
1847;SDS011;924;52.448;13.356;2022-09-09T05:31:00;7.40;;;5.80;;
1847;SDS011;924;52.448;13.356;2022-09-09T05:33:28;8.10;;;6.13;;
1847;SDS011;924;52.448;13.356;2022-09-09T05:35:57;5.93;;;5.23;;
1847;SDS011;924;52.448;13.356;2022-09-09T05:38:22;5.80;;;5.30;;
1847;SDS011;924;52.448;13.356;2022-09-09T05:40:50;9.50;;;6.20;;
1847;SDS011;924;52.448;13.356;2022-09-09T05:43:15;5.73;;;5.23;;
1847;SDS011;924;52.448;13.356;2022-09-09T05:45:41;5.80;;;5.20;;
1847;SDS011;924;52.448;13.356;2022-09-09T05:48:06;5.90;;;5.40;;
1847;SDS011;924;52.448;13.356;2022-09-09T05:50:32;6.23;;;5.63;;
1847;SDS011;924;52.448;13.356;2022-09-09T05:52:58;5.17;;;4.70;;
1847;SDS011;924;52.448;13.356;2022-09-09T05:55:24;6.93;;;6.13;;
1847;SDS011;924;52.448;13.356;2022-09-09T05:57:50;4.63;;;4.30;;
1847;SDS011;924;52.448;13.356;2022-09-09T06:00:17;5.60;;;4.60;;
1847;SDS011;924;52.448;13.356;2022-09-09T06:02:42;6.30;;;5.37;;
1847;SDS011;924;52.448;13.356;2022-09-09T06:05:07;7.00;;;4.53;;
1847;SDS011;924;52.448;13.356;2022-09-09T06:07:33;6.97;;;4.53;;
1847;SDS011;924;52.448;13.356;2022-09-09T06:09:58;5.03;;;4.53;;
1847;SDS011;924;52.448;13.356;2022-09-09T06:12:25;7.77;;;4.00;;
1847;SDS011;924;52.448;13.356;2022-09-09T06:14:50;4.10;;;3.80;;
1847;SDS011;924;52.448;13.356;2022-09-09T06:17:16;5.43;;;3.60;;
1847;SDS011;924;52.448;13.356;2022-09-09T06:19:41;4.53;;;4.00;;
1847;SDS011;924;52.448;13.356;2022-09-09T06:22:07;4.30;;;3.90;;
1847;SDS011;924;52.448;13.356;2022-09-09T06:24:32;6.10;;;3.57;;
1847;SDS011;924;52.448;13.356;2022-09-09T06:26:57;5.17;;;3.70;;
1847;SDS011;924;52.448;13.356;2022-09-09T06:29:23;5.50;;;3.87;;
1847;SDS011;924;52.448;13.356;2022-09-09T06:31:48;4.27;;;3.87;;
1847;SDS011;924;52.448;13.356;2022-09-09T06:34:13;4.27;;;3.87;;
1847;SDS011;924;52.448;13.356;2022-09-09T06:36:39;3.40;;;3.10;;
1847;SDS011;924;52.448;13.356;2022-09-09T06:39:05;4.33;;;3.80;;
1847;SDS011;924;52.448;13.356;2022-09-09T06:41:31;4.30;;;3.63;;
1847;SDS011;924;52.448;13.356;2022-09-09T06:43:57;4.43;;;4.03;;
1847;SDS011;924;52.448;13.356;2022-09-09T06:46:24;3.37;;;3.07;;
1847;SDS011;924;52.448;13.356;2022-09-09T06:48:53;6.83;;;3.53;;
1847;SDS011;924;52.448;13.356;2022-09-09T06:51:21;5.03;;;4.00;;
1847;SDS011;924;52.448;13.356;2022-09-09T06:53:47;9.10;;;4.50;;
1847;SDS011;924;52.448;13.356;2022-09-09T06:56:18;3.70;;;3.40;;
1847;SDS011;924;52.448;13.356;2022-09-09T06:58:45;4.60;;;3.60;;
1847;SDS011;924;52.448;13.356;2022-09-09T07:01:14;4.77;;;3.67;;
1847;SDS011;924;52.448;13.356;2022-09-09T07:03:40;5.07;;;3.40;;
1847;SDS011;924;52.448;13.356;2022-09-09T07:06:06;4.60;;;3.67;;
1847;SDS011;924;52.448;13.356;2022-09-09T07:08:38;3.90;;;3.57;;
1847;SDS011;924;52.448;13.356;2022-09-09T07:11:04;3.83;;;3.43;;
1847;SDS011;924;52.448;13.356;2022-09-09T07:13:30;4.80;;;3.33;;
1847;SDS011;924;52.448;13.356;2022-09-09T07:16:02;6.87;;;4.00;;
1847;SDS011;924;52.448;13.356;2022-09-09T07:18:27;4.23;;;3.60;;
1847;SDS011;924;52.448;13.356;2022-09-09T07:20:53;3.27;;;2.97;;
1847;SDS011;924;52.448;13.356;2022-09-09T07:23:20;4.47;;;3.70;;
1847;SDS011;924;52.448;13.356;2022-09-09T07:25:45;4.03;;;3.00;;
1847;SDS011;924;52.448;13.356;2022-09-09T07:28:11;3.97;;;3.10;;
1847;SDS011;924;52.448;13.356;2022-09-09T07:30:36;3.47;;;3.20;;
1847;SDS011;924;52.448;13.356;2022-09-09T07:33:01;4.73;;;3.00;;
1847;SDS011;924;52.448;13.356;2022-09-09T07:35:28;3.47;;;2.90;;
1847;SDS011;924;52.448;13.356;2022-09-09T07:37:53;4.80;;;2.87;;
1847;SDS011;924;52.448;13.356;2022-09-09T07:40:19;4.07;;;3.20;;
1847;SDS011;924;52.448;13.356;2022-09-09T07:42:46;3.80;;;2.90;;
1847;SDS011;924;52.448;13.356;2022-09-09T07:45:11;4.07;;;2.80;;
1847;SDS011;924;52.448;13.356;2022-09-09T07:47:37;4.57;;;3.13;;
1847;SDS011;924;52.448;13.356;2022-09-09T07:50:02;3.40;;;3.10;;
1847;SDS011;924;52.448;13.356;2022-09-09T07:52:27;3.17;;;2.93;;
1847;SDS011;924;52.448;13.356;2022-09-09T07:54:53;3.80;;;2.77;;
1847;SDS011;924;52.448;13.356;2022-09-09T07:57:18;3.10;;;2.80;;
1847;SDS011;924;52.448;13.356;2022-09-09T07:59:43;3.93;;;3.17;;
1847;SDS011;924;52.448;13.356;2022-09-09T08:02:11;3.73;;;2.83;;
1847;SDS011;924;52.448;13.356;2022-09-09T08:04:36;4.60;;;3.53;;
1847;SDS011;924;52.448;13.356;2022-09-09T08:07:02;3.10;;;2.40;;
1847;SDS011;924;52.448;13.356;2022-09-09T08:09:28;3.90;;;2.80;;
1847;SDS011;924;52.448;13.356;2022-09-09T08:11:54;3.73;;;2.60;;
1847;SDS011;924;52.448;13.356;2022-09-09T08:14:21;2.93;;;2.67;;
1847;SDS011;924;52.448;13.356;2022-09-09T08:16:47;4.93;;;3.47;;
1847;SDS011;924;52.448;13.356;2022-09-09T08:19:13;2.70;;;2.50;;
1847;SDS011;924;52.448;13.356;2022-09-09T08:21:40;2.57;;;2.37;;
1847;SDS011;924;52.448;13.356;2022-09-09T08:24:06;2.60;;;2.40;;
1847;SDS011;924;52.448;13.356;2022-09-09T08:26:35;4.53;;;2.73;;
1847;SDS011;924;52.448;13.356;2022-09-09T08:29:02;2.73;;;2.53;;
1847;SDS011;924;52.448;13.356;2022-09-09T08:31:28;6.43;;;2.37;;
1847;SDS011;924;52.448;13.356;2022-09-09T08:33:54;3.73;;;2.90;;
1847;SDS011;924;52.448;13.356;2022-09-09T08:36:21;2.73;;;2.20;;
1847;SDS011;924;52.448;13.356;2022-09-09T08:38:50;3.63;;;2.80;;
1847;SDS011;924;52.448;13.356;2022-09-09T08:43:50;4.30;;;2.87;;
1847;SDS011;924;52.448;13.356;2022-09-09T08:46:25;4.47;;;2.43;;
1847;SDS011;924;52.448;13.356;2022-09-09T08:51:20;2.77;;;2.50;;
1847;SDS011;924;52.448;13.356;2022-09-09T08:53:46;3.53;;;3.10;;
1847;SDS011;924;52.448;13.356;2022-09-09T08:56:14;3.83;;;3.40;;
1847;SDS011;924;52.448;13.356;2022-09-09T08:58:49;3.83;;;2.80;;
1847;SDS011;924;52.448;13.356;2022-09-09T09:01:23;6.07;;;3.03;;
1847;SDS011;924;52.448;13.356;2022-09-09T09:11:38;2.70;;;2.50;;
1847;SDS011;924;52.448;13.356;2022-09-09T09:14:08;4.23;;;2.70;;
1847;SDS011;924;52.448;13.356;2022-09-09T09:19:08;5.30;;;2.40;;
1847;SDS011;924;52.448;13.356;2022-09-09T09:21:39;3.70;;;3.20;;
1847;SDS011;924;52.448;13.356;2022-09-09T09:24:09;4.70;;;3.13;;
1847;SDS011;924;52.448;13.356;2022-09-09T09:26:40;3.47;;;2.73;;
1847;SDS011;924;52.448;13.356;2022-09-09T09:29:10;3.37;;;2.67;;
1847;SDS011;924;52.448;13.356;2022-09-09T09:31:36;3.53;;;2.47;;
1847;SDS011;924;52.448;13.356;2022-09-09T09:34:02;4.47;;;2.73;;
1847;SDS011;924;52.448;13.356;2022-09-09T09:36:34;5.97;;;2.40;;
1847;SDS011;924;52.448;13.356;2022-09-09T09:39:01;4.53;;;2.47;;
1847;SDS011;924;52.448;13.356;2022-09-09T09:43:59;3.53;;;2.13;;
1847;SDS011;924;52.448;13.356;2022-09-09T09:46:26;3.30;;;2.40;;
1847;SDS011;924;52.448;13.356;2022-09-09T09:49:05;3.50;;;2.20;;
1847;SDS011;924;52.448;13.356;2022-09-09T09:51:31;2.37;;;1.87;;
1847;SDS011;924;52.448;13.356;2022-09-09T09:56:38;3.00;;;2.70;;
1847;SDS011;924;52.448;13.356;2022-09-09T09:59:04;4.90;;;2.30;;
1847;SDS011;924;52.448;13.356;2022-09-09T10:01:30;3.07;;;2.17;;
1847;SDS011;924;52.448;13.356;2022-09-09T10:03:59;3.80;;;2.27;;
1847;SDS011;924;52.448;13.356;2022-09-09T10:06:34;2.53;;;2.27;;
1847;SDS011;924;52.448;13.356;2022-09-09T10:09:01;3.67;;;2.03;;
1847;SDS011;924;52.448;13.356;2022-09-09T10:11:44;2.60;;;1.97;;
1847;SDS011;924;52.448;13.356;2022-09-09T10:14:21;1.77;;;1.63;;
1847;SDS011;924;52.448;13.356;2022-09-09T10:19:34;4.40;;;2.30;;
1847;SDS011;924;52.448;13.356;2022-09-09T10:40:21;5.37;;;3.50;;
1847;SDS011;924;52.448;13.356;2022-09-09T10:42:44;2.33;;;1.80;;
1847;SDS011;924;52.448;13.356;2022-09-09T10:48:30;3.13;;;2.10;;
1847;SDS011;924;52.448;13.356;2022-09-09T10:55:42;2.73;;;1.90;;
1847;SDS011;924;52.448;13.356;2022-09-09T10:58:10;3.80;;;2.30;;
1847;SDS011;924;52.448;13.356;2022-09-09T11:00:43;2.73;;;1.80;;
1847;SDS011;924;52.448;13.356;2022-09-09T11:03:28;2.60;;;1.83;;
1847;SDS011;924;52.448;13.356;2022-09-09T11:08:24;3.00;;;1.70;;
1847;SDS011;924;52.448;13.356;2022-09-09T11:11:34;2.63;;;2.20;;
1847;SDS011;924;52.448;13.356;2022-09-09T11:13:44;3.53;;;1.93;;
1847;SDS011;924;52.448;13.356;2022-09-09T11:18:41;3.33;;;1.80;;
1847;SDS011;924;52.448;13.356;2022-09-09T11:21:10;2.50;;;1.93;;
1847;SDS011;924;52.448;13.356;2022-09-09T11:23:40;2.80;;;1.77;;
1847;SDS011;924;52.448;13.356;2022-09-09T11:26:07;6.37;;;3.90;;
1847;SDS011;924;52.448;13.356;2022-09-09T11:28:50;2.00;;;1.80;;
1847;SDS011;924;52.448;13.356;2022-09-09T11:41:39;7.10;;;1.70;;
1847;SDS011;924;52.448;13.356;2022-09-09T11:44:11;2.90;;;1.53;;
1847;SDS011;924;52.448;13.356;2022-09-09T11:46:38;3.10;;;1.80;;
1847;SDS011;924;52.448;13.356;2022-09-09T11:49:05;4.03;;;1.43;;
1847;SDS011;924;52.448;13.356;2022-09-09T11:51:32;2.60;;;1.70;;
1847;SDS011;924;52.448;13.356;2022-09-09T11:53:58;2.37;;;1.70;;
1847;SDS011;924;52.448;13.356;2022-09-09T11:58:55;3.27;;;2.50;;
1847;SDS011;924;52.448;13.356;2022-09-09T12:01:29;1.80;;;1.60;;
1847;SDS011;924;52.448;13.356;2022-09-09T12:04:37;2.67;;;1.83;;
1847;SDS011;924;52.448;13.356;2022-09-09T12:06:54;4.30;;;1.60;;
1847;SDS011;924;52.448;13.356;2022-09-09T12:17:20;2.10;;;1.70;;
1847;SDS011;924;52.448;13.356;2022-09-09T12:19:47;5.83;;;2.30;;
1847;SDS011;924;52.448;13.356;2022-09-09T12:22:16;4.37;;;1.80;;
1847;SDS011;924;52.448;13.356;2022-09-09T12:27:15;1.90;;;1.70;;
1847;SDS011;924;52.448;13.356;2022-09-09T12:29:44;3.00;;;2.13;;
1847;SDS011;924;52.448;13.356;2022-09-09T12:32:15;2.63;;;1.43;;
1847;SDS011;924;52.448;13.356;2022-09-09T12:39:42;1.63;;;1.23;;
1847;SDS011;924;52.448;13.356;2022-09-09T12:42:15;4.70;;;1.30;;
1847;SDS011;924;52.448;13.356;2022-09-09T12:44:49;1.77;;;1.50;;
1847;SDS011;924;52.448;13.356;2022-09-09T12:47:15;2.07;;;1.50;;
1847;SDS011;924;52.448;13.356;2022-09-09T12:49:40;2.20;;;1.17;;
1847;SDS011;924;52.448;13.356;2022-09-09T12:52:27;5.00;;;1.80;;
1847;SDS011;924;52.448;13.356;2022-09-09T12:54:55;2.20;;;1.50;;
1847;SDS011;924;52.448;13.356;2022-09-09T12:57:21;2.00;;;1.23;;
1847;SDS011;924;52.448;13.356;2022-09-09T12:59:49;2.37;;;1.57;;
1847;SDS011;924;52.448;13.356;2022-09-09T13:02:19;1.40;;;1.30;;
1847;SDS011;924;52.448;13.356;2022-09-09T13:04:44;2.40;;;1.33;;
1847;SDS011;924;52.448;13.356;2022-09-09T13:07:11;1.50;;;1.40;;
1847;SDS011;924;52.448;13.356;2022-09-09T13:09:42;2.23;;;1.50;;
1847;SDS011;924;52.448;13.356;2022-09-09T13:12:11;3.07;;;1.83;;
1847;SDS011;924;52.448;13.356;2022-09-09T13:14:38;2.50;;;1.40;;
1847;SDS011;924;52.448;13.356;2022-09-09T13:17:04;2.43;;;1.40;;
1847;SDS011;924;52.448;13.356;2022-09-09T13:19:31;2.73;;;1.23;;
1847;SDS011;924;52.448;13.356;2022-09-09T13:21:57;2.00;;;1.80;;
1847;SDS011;924;52.448;13.356;2022-09-09T13:24:27;2.80;;;1.50;;
1847;SDS011;924;52.448;13.356;2022-09-09T13:27:01;1.70;;;1.60;;
1847;SDS011;924;52.448;13.356;2022-09-09T13:29:27;2.13;;;1.40;;
1847;SDS011;924;52.448;13.356;2022-09-09T13:31:52;1.80;;;1.30;;
1847;SDS011;924;52.448;13.356;2022-09-09T13:36:53;4.27;;;2.43;;
1847;SDS011;924;52.448;13.356;2022-09-09T13:39:20;2.37;;;1.30;;
1847;SDS011;924;52.448;13.356;2022-09-09T13:41:45;4.10;;;2.20;;
1847;SDS011;924;52.448;13.356;2022-09-09T13:44:20;3.10;;;1.43;;
1847;SDS011;924;52.448;13.356;2022-09-09T13:46:48;1.57;;;1.40;;
1847;SDS011;924;52.448;13.356;2022-09-09T13:49:24;5.13;;;3.10;;
1847;SDS011;924;52.448;13.356;2022-09-09T13:52:02;3.63;;;2.03;;
1847;SDS011;924;52.448;13.356;2022-09-09T13:54:27;4.50;;;1.80;;
1847;SDS011;924;52.448;13.356;2022-09-09T13:56:53;3.00;;;1.83;;
1847;SDS011;924;52.448;13.356;2022-09-09T13:59:20;2.67;;;1.33;;
1847;SDS011;924;52.448;13.356;2022-09-09T14:01:46;3.87;;;1.70;;
1847;SDS011;924;52.448;13.356;2022-09-09T14:04:11;2.63;;;1.60;;
1847;SDS011;924;52.448;13.356;2022-09-09T14:06:37;4.03;;;2.30;;
1847;SDS011;924;52.448;13.356;2022-09-09T14:09:03;4.37;;;1.67;;
1847;SDS011;924;52.448;13.356;2022-09-09T14:11:28;3.40;;;1.43;;
1847;SDS011;924;52.448;13.356;2022-09-09T14:13:54;1.70;;;1.40;;
1847;SDS011;924;52.448;13.356;2022-09-09T14:16:19;1.73;;;1.23;;
1847;SDS011;924;52.448;13.356;2022-09-09T14:18:46;3.30;;;1.60;;
1847;SDS011;924;52.448;13.356;2022-09-09T14:21:12;2.83;;;2.10;;
1847;SDS011;924;52.448;13.356;2022-09-09T14:23:37;3.17;;;1.57;;
1847;SDS011;924;52.448;13.356;2022-09-09T14:26:03;5.77;;;2.47;;
1847;SDS011;924;52.448;13.356;2022-09-09T14:28:28;2.33;;;1.70;;
1847;SDS011;924;52.448;13.356;2022-09-09T14:30:54;2.73;;;1.70;;
1847;SDS011;924;52.448;13.356;2022-09-09T14:33:19;4.93;;;1.53;;
1847;SDS011;924;52.448;13.356;2022-09-09T14:35:46;3.20;;;1.50;;
1847;SDS011;924;52.448;13.356;2022-09-09T14:38:11;2.23;;;1.27;;
1847;SDS011;924;52.448;13.356;2022-09-09T14:40:37;3.30;;;1.47;;
1847;SDS011;924;52.448;13.356;2022-09-09T14:43:03;3.13;;;1.60;;
1847;SDS011;924;52.448;13.356;2022-09-09T14:45:28;2.80;;;1.63;;
1847;SDS011;924;52.448;13.356;2022-09-09T14:47:53;5.03;;;1.70;;
1847;SDS011;924;52.448;13.356;2022-09-09T14:50:19;2.30;;;1.50;;
1847;SDS011;924;52.448;13.356;2022-09-09T14:52:45;2.93;;;1.87;;
1847;SDS011;924;52.448;13.356;2022-09-09T14:55:10;2.47;;;1.70;;
1847;SDS011;924;52.448;13.356;2022-09-09T14:57:36;3.00;;;2.20;;
1847;SDS011;924;52.448;13.356;2022-09-09T15:00:02;1.90;;;1.67;;
1847;SDS011;924;52.448;13.356;2022-09-09T15:02:27;2.03;;;1.53;;
1847;SDS011;924;52.448;13.356;2022-09-09T15:04:54;2.80;;;1.37;;
1847;SDS011;924;52.448;13.356;2022-09-09T15:07:22;2.10;;;1.30;;
1847;SDS011;924;52.448;13.356;2022-09-09T15:09:47;2.83;;;1.20;;
1847;SDS011;924;52.448;13.356;2022-09-09T15:12:13;2.97;;;1.00;;
1847;SDS011;924;52.448;13.356;2022-09-09T15:14:39;4.37;;;1.10;;
1847;SDS011;924;52.448;13.356;2022-09-09T15:17:04;2.70;;;0.80;;
1847;SDS011;924;52.448;13.356;2022-09-09T15:19:29;2.07;;;0.93;;
1847;SDS011;924;52.448;13.356;2022-09-09T15:21:55;1.80;;;1.00;;
1847;SDS011;924;52.448;13.356;2022-09-09T15:24:20;1.97;;;1.07;;
1847;SDS011;924;52.448;13.356;2022-09-09T15:26:46;1.57;;;1.00;;
1847;SDS011;924;52.448;13.356;2022-09-09T15:29:11;1.90;;;1.20;;
1847;SDS011;924;52.448;13.356;2022-09-09T15:31:37;3.70;;;1.07;;
1847;SDS011;924;52.448;13.356;2022-09-09T15:34:05;1.67;;;1.30;;
1847;SDS011;924;52.448;13.356;2022-09-09T15:36:32;1.50;;;1.00;;
1847;SDS011;924;52.448;13.356;2022-09-09T15:39:01;2.17;;;1.30;;
1847;SDS011;924;52.448;13.356;2022-09-09T15:41:28;2.20;;;1.23;;
1847;SDS011;924;52.448;13.356;2022-09-09T15:43:54;2.57;;;1.60;;
1847;SDS011;924;52.448;13.356;2022-09-09T15:46:25;4.20;;;1.53;;
1847;SDS011;924;52.448;13.356;2022-09-09T15:48:52;2.13;;;1.13;;
1847;SDS011;924;52.448;13.356;2022-09-09T15:51:17;3.53;;;1.43;;
1847;SDS011;924;52.448;13.356;2022-09-09T15:53:43;3.00;;;1.60;;
1847;SDS011;924;52.448;13.356;2022-09-09T15:56:09;3.00;;;1.37;;
1847;SDS011;924;52.448;13.356;2022-09-09T15:58:35;1.63;;;1.47;;
1847;SDS011;924;52.448;13.356;2022-09-09T16:01:04;2.07;;;1.70;;
1847;SDS011;924;52.448;13.356;2022-09-09T16:03:30;1.80;;;1.37;;
1847;SDS011;924;52.448;13.356;2022-09-09T16:05:58;2.73;;;1.80;;
1847;SDS011;924;52.448;13.356;2022-09-09T16:08:23;4.40;;;1.97;;
1847;SDS011;924;52.448;13.356;2022-09-09T16:10:49;2.30;;;1.50;;
1847;SDS011;924;52.448;13.356;2022-09-09T16:13:14;2.97;;;2.00;;
1847;SDS011;924;52.448;13.356;2022-09-09T16:15:39;5.10;;;1.60;;
1847;SDS011;924;52.448;13.356;2022-09-09T16:18:05;4.13;;;1.57;;
1847;SDS011;924;52.448;13.356;2022-09-09T16:20:30;3.73;;;1.80;;
1847;SDS011;924;52.448;13.356;2022-09-09T16:22:56;1.97;;;1.80;;
1847;SDS011;924;52.448;13.356;2022-09-09T16:25:22;2.40;;;1.77;;
1847;SDS011;924;52.448;13.356;2022-09-09T16:27:47;2.87;;;1.90;;
1847;SDS011;924;52.448;13.356;2022-09-09T16:30:12;3.10;;;1.80;;
1847;SDS011;924;52.448;13.356;2022-09-09T16:32:38;4.27;;;2.17;;
1847;SDS011;924;52.448;13.356;2022-09-09T16:35:03;3.73;;;1.73;;
1847;SDS011;924;52.448;13.356;2022-09-09T16:37:29;3.33;;;1.50;;
1847;SDS011;924;52.448;13.356;2022-09-09T16:39:54;2.43;;;1.83;;
1847;SDS011;924;52.448;13.356;2022-09-09T16:42:19;2.30;;;1.33;;
1847;SDS011;924;52.448;13.356;2022-09-09T16:44:44;4.40;;;2.17;;
1847;SDS011;924;52.448;13.356;2022-09-09T16:47:10;2.17;;;2.00;;
1847;SDS011;924;52.448;13.356;2022-09-09T16:49:35;2.00;;;1.20;;
1847;SDS011;924;52.448;13.356;2022-09-09T16:52:01;2.50;;;1.77;;
1847;SDS011;924;52.448;13.356;2022-09-09T16:54:26;73.87;;;9.70;;
1847;SDS011;924;52.448;13.356;2022-09-09T16:56:52;3.70;;;2.20;;
1847;SDS011;924;52.448;13.356;2022-09-09T16:59:18;3.33;;;2.13;;
1847;SDS011;924;52.448;13.356;2022-09-09T17:01:44;2.17;;;1.73;;
1847;SDS011;924;52.448;13.356;2022-09-09T17:04:12;4.13;;;1.60;;
1847;SDS011;924;52.448;13.356;2022-09-09T17:06:38;2.40;;;1.30;;
1847;SDS011;924;52.448;13.356;2022-09-09T17:09:05;3.90;;;1.87;;
1847;SDS011;924;52.448;13.356;2022-09-09T17:11:30;2.13;;;1.63;;
1847;SDS011;924;52.448;13.356;2022-09-09T17:13:56;2.40;;;2.00;;
1847;SDS011;924;52.448;13.356;2022-09-09T17:16:23;1.70;;;1.60;;
1847;SDS011;924;52.448;13.356;2022-09-09T17:18:49;3.00;;;1.60;;
1847;SDS011;924;52.448;13.356;2022-09-09T17:21:16;4.57;;;2.20;;
1847;SDS011;924;52.448;13.356;2022-09-09T17:23:43;2.27;;;1.57;;
1847;SDS011;924;52.448;13.356;2022-09-09T17:26:10;3.63;;;1.90;;
1847;SDS011;924;52.448;13.356;2022-09-09T17:28:36;3.13;;;2.30;;